Time;durP1;ratioP1;P1;durP2;ratioP2;P2;SDS_P1;SDS_P2;PMS_P1;PMS_P2;Temp;Humidity;BMP_temperature;BMP_pressure;BME280_temperature;BME280_humidity;BME280_pressure;Samples;Min_cycle;Max_cycle;Signal;HPM_P1;HPM_P2
2021/01/17 10:17:26;;;;;;;10.50;2.17;;;7.50;99.90;;;;;;4340206;26;20263;-69
2021/01/17 10:19:52;;;;;;;8.63;1.73;;;7.60;99.90;;;;;;5032435;28;20205;-72
2021/01/17 10:22:19;;;;;;;5.47;1.60;;;7.60;99.90;;;;;;5031749;28;20579;-70
2021/01/17 10:24:45;;;;;;;7.17;1.57;;;7.60;99.90;;;;;;5031989;28;20694;-75
2021/01/17 10:27:16;;;;;;;5.60;2.03;;;7.70;99.90;;;;;;5032204;28;20208;-74
2021/01/17 10:29:43;;;;;;;9.17;1.60;;;7.80;99.90;;;;;;5031108;28;20209;-70
2021/01/17 10:32:10;;;;;;;7.03;1.63;;;8.00;99.90;;;;;;5032245;28;21921;-73
2021/01/17 10:34:41;;;;;;;5.73;1.63;;;8.10;99.90;;;;;;5032293;28;20228;-72
2021/01/17 10:37:08;;;;;;;8.20;2.37;;;8.20;99.90;;;;;;5031668;28;20197;-72
2021/01/17 10:39:37;;;;;;;9.37;1.40;;;8.10;99.90;;;;;;5031996;28;20659;-72
2021/01/17 10:42:12;;;;;;;10.20;2.03;;;8.10;99.90;;;;;;5031968;28;20511;-72
2021/01/17 10:44:47;;;;;;;5.10;1.40;;;8.00;99.90;;;;;;5031185;28;20204;-70
2021/01/17 10:47:25;;;;;;;13.10;2.10;;;7.90;99.90;;;;;;5035981;28;20219;-72
2021/01/17 10:49:55;;;;;;;10.27;1.50;;;7.90;99.90;;;;;;5035559;28;20208;-76
2021/01/17 10:52:27;;;;;;;5.30;1.37;;;8.00;99.90;;;;;;5035172;28;20221;-77
2021/01/17 10:54:53;;;;;;;12.63;2.30;;;8.10;99.90;;;;;;5035542;28;20244;-75
2021/01/17 10:57:21;;;;;;;6.10;1.33;;;8.10;99.90;;;;;;5035738;28;20205;-76
2021/01/17 10:59:49;;;;;;;7.67;1.67;;;8.10;99.90;;;;;;5035328;28;20205;-70
2021/01/17 11:02:23;;;;;;;8.53;1.73;;;8.20;99.90;;;;;;5035304;28;20225;-76
2021/01/17 11:04:49;;;;;;;5.60;1.50;;;8.10;99.90;;;;;;5035658;28;20216;-76
2021/01/17 11:07:20;;;;;;;5.23;1.40;;;8.00;99.90;;;;;;5032262;28;20208;-78
2021/01/17 11:09:47;;;;;;;7.43;1.50;;;8.10;99.90;;;;;;5026671;28;20216;-77
2021/01/17 11:12:13;;;;;;;7.63;1.43;;;8.30;99.90;;;;;;5026230;28;20225;-77
2021/01/17 11:14:39;;;;;;;6.27;2.20;;;8.50;99.90;;;;;;5032756;28;20240;-79
2021/01/17 11:17:06;;;;;;;7.90;1.90;;;8.60;99.90;;;;;;5032450;28;20688;-77
2021/01/17 11:19:35;;;;;;;8.03;1.93;;;8.60;99.90;;;;;;5033363;28;20227;-76
2021/01/17 11:22:01;;;;;;;8.83;1.67;;;8.60;99.90;;;;;;5033776;28;20204;-76
2021/01/17 11:24:36;;;;;;;6.50;1.63;;;8.50;99.90;;;;;;5034090;28;20205;-76
2021/01/17 11:27:11;;;;;;;9.93;2.13;;;8.60;99.90;;;;;;5032838;28;20680;-76
2021/01/17 11:29:37;;;;;;;5.67;1.60;;;8.50;99.90;;;;;;5013775;28;20212;-76
2021/01/17 11:32:04;;;;;;;7.20;1.50;;;8.30;99.90;;;;;;5014118;28;20347;-74
2021/01/17 11:34:36;;;;;;;9.33;2.03;;;8.30;99.90;;;;;;5024868;28;20232;-76
2021/01/17 11:37:03;;;;;;;5.83;1.77;;;8.20;99.90;;;;;;5026607;28;20205;-76
2021/01/17 11:39:29;;;;;;;6.27;1.73;;;8.20;99.90;;;;;;5027033;28;20201;-76
2021/01/17 11:41:56;;;;;;;6.87;1.50;;;8.10;99.90;;;;;;5032549;28;20197;-76
2021/01/17 11:44:24;;;;;;;2.97;1.50;;;7.90;99.90;;;;;;5025711;28;20213;-76
2021/01/17 11:46:51;;;;;;;8.23;1.53;;;7.90;99.90;;;;;;5013490;28;20251;-78
2021/01/17 11:49:23;;;;;;;6.93;1.40;;;8.00;99.90;;;;;;5024104;28;20212;-77
2021/01/17 11:51:49;;;;;;;5.73;1.30;;;7.90;99.90;;;;;;5032349;28;20295;-78
2021/01/17 11:54:18;;;;;;;3.87;1.40;;;7.90;99.90;;;;;;5033137;28;20274;-77
2021/01/17 11:56:45;;;;;;;5.07;1.60;;;7.90;99.90;;;;;;5032465;28;20251;-78
2021/01/17 11:59:25;;;;;;;8.47;1.33;;;7.80;99.90;;;;;;5032420;28;20563;-78
2021/01/17 12:01:51;;;;;;;5.33;1.80;;;7.80;99.90;;;;;;5033173;28;20208;-77
2021/01/17 12:04:24;;;;;;;9.07;1.87;;;7.80;99.90;;;;;;5033002;28;20224;-78
2021/01/17 12:07:03;;;;;;;5.33;1.73;;;7.80;99.90;;;;;;5031218;28;20221;-78
2021/01/17 12:09:29;;;;;;;3.23;1.40;;;7.70;99.90;;;;;;5032744;28;20266;-78
2021/01/17 12:11:55;;;;;;;8.23;2.27;;;7.70;99.90;;;;;;5032530;28;20209;-77
2021/01/17 12:14:24;;;;;;;10.63;2.27;;;7.70;99.90;;;;;;5032437;28;20240;-77
2021/01/17 12:16:52;;;;;;;6.43;1.83;;;7.80;99.90;;;;;;5032744;28;20275;-80
2021/01/17 12:19:19;;;;;;;10.53;2.43;;;7.80;99.90;;;;;;5033541;28;20204;-80
2021/01/17 12:21:49;;;;;;;8.93;2.03;;;7.80;99.90;;;;;;5035082;28;20201;-79
2021/01/17 12:24:17;;;;;;;5.97;2.00;;;7.70;99.90;;;;;;5033715;28;20255;-79
2021/01/17 12:26:45;;;;;;;9.73;1.43;;;7.70;99.90;;;;;;5034374;28;20208;-80
2021/01/17 12:29:12;;;;;;;5.80;1.93;;;7.70;99.90;;;;;;5034465;28;20591;-80
2021/01/17 12:31:40;;;;;;;3.90;1.83;;;7.70;99.90;;;;;;5034239;28;20299;-80
2021/01/17 12:34:07;;;;;;;9.57;2.13;;;7.80;99.90;;;;;;5034564;28;20228;-80
2021/01/17 12:36:35;;;;;;;9.23;1.50;;;8.00;99.90;;;;;;5034180;28;20209;-80
2021/01/17 12:39:02;;;;;;;3.80;1.50;;;8.00;99.90;;;;;;5033919;28;20212;-80
2021/01/17 12:41:30;;;;;;;5.63;1.77;;;8.20;99.90;;;;;;5034028;28;20216;-80
2021/01/17 12:43:58;;;;;;;8.20;1.53;;;8.40;99.90;;;;;;5034210;28;20225;-80
2021/01/17 12:46:25;;;;;;;5.60;1.20;;;8.40;99.90;;;;;;5033970;28;20212;-80
2021/01/17 12:48:53;;;;;;;5.60;1.73;;;8.40;99.90;;;;;;5034103;28;20213;-80
2021/01/17 12:51:19;;;;;;;6.00;1.30;;;8.30;99.90;;;;;;5033985;28;20598;-80
2021/01/17 12:53:48;;;;;;;3.03;1.10;;;8.20;99.90;;;;;;5033488;28;20584;-80
2021/01/17 12:56:15;;;;;;;3.13;1.27;;;8.30;99.90;;;;;;5033941;28;20236;-80
2021/01/17 12:58:43;;;;;;;6.33;1.40;;;8.20;99.90;;;;;;5033713;28;20215;-81
2021/01/17 13:01:09;;;;;;;6.27;1.60;;;8.20;99.90;;;;;;5033977;28;20200;-80
2021/01/17 13:03:36;;;;;;;3.83;1.20;;;8.20;99.90;;;;;;5033674;28;20240;-81
2021/01/17 13:06:04;;;;;;;4.37;1.20;;;8.20;99.90;;;;;;5033565;28;20258;-81
2021/01/17 13:08:32;;;;;;;4.30;0.93;;;8.20;99.90;;;;;;5033616;28;20209;-80
2021/01/17 13:10:59;;;;;;;2.53;1.03;;;8.20;99.90;;;;;;5033452;28;20216;-80
2021/01/17 13:13:25;;;;;;;6.57;1.27;;;8.30;99.90;;;;;;5033672;28;20225;-80
2021/01/17 13:15:54;;;;;;;7.00;1.17;;;8.40;99.90;;;;;;5033354;28;20232;-80
2021/01/17 13:18:20;;;;;;;6.03;1.30;;;8.50;99.90;;;;;;5033416;28;20209;-81
2021/01/17 13:20:47;;;;;;;5.23;1.20;;;8.50;99.90;;;;;;5033367;28;20216;-80
2021/01/17 13:23:14;;;;;;;4.40;1.17;;;8.40;99.90;;;;;;5033484;28;20299;-80
2021/01/17 13:25:41;;;;;;;4.17;1.97;;;8.30;99.90;;;;;;5033574;28;20200;-80
2021/01/17 13:28:09;;;;;;;4.97;1.53;;;8.20;99.90;;;;;;5033293;28;20603;-80
2021/01/17 13:30:36;;;;;;;7.47;1.50;;;8.30;99.90;;;;;;5033263;28;20212;-80
2021/01/17 13:33:04;;;;;;;7.77;2.07;;;8.30;99.90;;;;;;5032897;28;20225;-80
2021/01/17 13:35:31;;;;;;;4.57;1.00;;;8.30;99.90;;;;;;5033282;28;20232;-80
2021/01/17 13:37:58;;;;;;;2.97;1.00;;;8.40;99.90;;;;;;5033267;28;20205;-80
2021/01/17 13:40:25;;;;;;;7.20;1.20;;;8.40;99.90;;;;;;5032939;28;20544;-80
2021/01/17 13:42:52;;;;;;;2.67;0.70;;;8.40;99.90;;;;;;5034988;28;20308;-80
2021/01/17 13:45:19;;;;;;;4.50;0.87;;;8.40;99.90;;;;;;5033066;28;20217;-80
2021/01/17 13:47:45;;;;;;;4.80;1.00;;;8.30;99.90;;;;;;5032922;28;20200;-80
2021/01/17 13:50:12;;;;;;;3.37;0.80;;;8.20;99.90;;;;;;5033407;28;20205;-80
2021/01/17 13:52:42;;;;;;;3.47;0.80;;;8.20;99.90;;;;;;5032990;28;20714;-80
2021/01/17 13:55:09;;;;;;;2.97;1.10;;;8.10;99.90;;;;;;5033029;28;20256;-79
2021/01/17 13:57:39;;;;;;;4.10;0.80;;;8.20;99.90;;;;;;5033277;28;20282;-79
2021/01/17 14:00:08;;;;;;;3.93;0.80;;;8.20;99.90;;;;;;5032967;28;20666;-79
2021/01/17 14:02:35;;;;;;;4.23;1.17;;;8.20;99.90;;;;;;5032819;28;20229;-79
2021/01/17 14:05:01;;;;;;;6.37;1.37;;;8.10;99.90;;;;;;5032965;28;20310;-79
2021/01/17 14:07:27;;;;;;;5.60;1.00;;;8.10;99.90;;;;;;5032593;28;20204;-79
2021/01/17 14:09:54;;;;;;;5.17;1.10;;;8.00;99.90;;;;;;5032795;28;20205;-79
2021/01/17 14:12:20;;;;;;;5.30;1.07;;;8.00;99.90;;;;;;5032612;28;20225;-79
2021/01/17 14:14:48;;;;;;;5.10;1.50;;;8.10;99.90;;;;;;5032355;28;20237;-79
2021/01/17 14:17:15;;;;;;;4.43;1.43;;;8.00;99.90;;;;;;5032657;28;20224;-79
2021/01/17 14:19:42;;;;;;;12.87;1.30;;;7.90;99.90;;;;;;5033971;28;20659;-79
2021/01/17 14:22:11;;;;;;;3.63;1.00;;;7.90;99.90;;;;;;5036564;28;20208;-79
2021/01/17 14:24:38;;;;;;;7.77;1.67;;;7.80;99.90;;;;;;5036976;28;20204;-79
2021/01/17 14:27:05;;;;;;;5.17;1.30;;;7.80;99.90;;;;;;5036769;28;20208;-79
2021/01/17 14:29:31;;;;;;;8.50;1.30;;;7.70;99.90;;;;;;5036335;28;20270;-79
2021/01/17 14:31:58;;;;;;;3.77;1.17;;;7.60;99.90;;;;;;5036664;28;20201;-79
2021/01/17 14:34:24;;;;;;;9.90;1.80;;;7.70;99.90;;;;;;5036317;28;20670;-78
2021/01/17 14:36:52;;;;;;;5.90;1.50;;;7.60;99.90;;;;;;5036387;28;20571;-79
2021/01/17 14:39:21;;;;;;;4.73;1.13;;;7.60;99.90;;;;;;5036448;28;20213;-79
2021/01/17 14:41:48;;;;;;;4.73;1.07;;;7.60;99.90;;;;;;5036427;28;20212;-79
2021/01/17 14:44:14;;;;;;;2.77;1.07;;;7.70;99.90;;;;;;5036603;28;20270;-79
2021/01/17 14:46:42;;;;;;;9.43;1.27;;;7.70;99.90;;;;;;5036460;28;20205;-79
2021/01/17 14:49:10;;;;;;;6.73;1.40;;;7.50;99.90;;;;;;5036277;28;20671;-79
2021/01/17 14:51:36;;;;;;;3.90;1.03;;;7.50;99.90;;;;;;5036474;28;20205;-79
2021/01/17 14:54:03;;;;;;;4.93;1.17;;;7.40;99.90;;;;;;5036200;28;20695;-79
2021/01/17 14:56:37;;;;;;;4.10;1.13;;;7.50;99.90;;;;;;5035971;28;20233;-79
2021/01/17 14:59:04;;;;;;;5.63;1.27;;;7.60;99.90;;;;;;5035991;28;20204;-78
2021/01/17 15:01:30;;;;;;;2.47;1.27;;;7.60;99.90;;;;;;5035613;28;20690;-79
2021/01/17 15:03:56;;;;;;;1.40;0.90;;;7.70;99.90;;;;;;5035720;28;20583;-79
2021/01/17 15:06:24;;;;;;;6.20;1.30;;;7.90;99.90;;;;;;5035907;28;20211;-78
2021/01/17 15:08:50;;;;;;;7.00;1.23;;;8.00;99.90;;;;;;5035778;28;20220;-78
2021/01/17 15:11:17;;;;;;;2.37;0.90;;;8.00;99.90;;;;;;5035783;28;20212;-79
2021/01/17 15:13:44;;;;;;;3.93;1.30;;;8.10;99.90;;;;;;5036076;28;20615;-79
2021/01/17 15:16:10;;;;;;;6.87;1.23;;;8.10;99.90;;;;;;5035524;28;20236;-79
2021/01/17 15:18:36;;;;;;;2.07;1.10;;;8.20;99.90;;;;;;5035742;28;20224;-79
2021/01/17 15:21:04;;;;;;;4.13;1.13;;;8.10;99.90;;;;;;5036067;28;20205;-79
2021/01/17 15:23:31;;;;;;;6.80;1.07;;;8.00;99.90;;;;;;5035335;28;20225;-79
2021/01/17 15:25:57;;;;;;;4.00;1.10;;;8.10;99.90;;;;;;5035707;28;20209;-79
2021/01/17 15:28:23;;;;;;;5.27;1.10;;;7.90;99.90;;;;;;5035811;28;20205;-79
2021/01/17 15:30:50;;;;;;;2.77;1.00;;;7.90;99.90;;;;;;5035495;28;20209;-79
2021/01/17 15:33:18;;;;;;;4.50;1.40;;;7.90;99.90;;;;;;5035342;28;20583;-79
2021/01/17 15:35:44;;;;;;;1.93;1.13;;;7.80;99.90;;;;;;5035216;28;20240;-79
2021/01/17 15:38:11;;;;;;;4.53;1.13;;;7.90;99.90;;;;;;5035117;28;20205;-79
2021/01/17 15:40:40;;;;;;;2.60;1.07;;;7.90;99.90;;;;;;5035530;28;20212;-79
2021/01/17 15:43:06;;;;;;;3.90;1.10;;;7.90;99.90;;;;;;5035284;28;20599;-79
2021/01/17 15:45:32;;;;;;;5.07;1.30;;;7.80;99.90;;;;;;5035408;28;20208;-79
2021/01/17 15:47:59;;;;;;;1.87;0.97;;;7.70;99.90;;;;;;5035048;28;20213;-79
2021/01/17 15:50:25;;;;;;;5.33;1.37;;;7.70;99.90;;;;;;5034884;28;20209;-79
2021/01/17 15:52:52;;;;;;;3.43;1.30;;;7.80;99.90;;;;;;5035028;28;20229;-80
2021/01/17 15:55:18;;;;;;;5.20;1.30;;;7.80;99.90;;;;;;5035083;28;20233;-79
2021/01/17 15:57:45;;;;;;;4.83;1.10;;;7.80;99.90;;;;;;5035124;28;20682;-79
2021/01/17 16:00:12;;;;;;;4.23;1.10;;;7.60;99.90;;;;;;5034995;28;20216;-79
2021/01/17 16:02:39;;;;;;;2.07;1.00;;;7.70;99.90;;;;;;5034271;28;20221;-79
2021/01/17 16:05:06;;;;;;;4.03;1.03;;;7.70;99.90;;;;;;5034599;28;20201;-79
2021/01/17 16:07:33;;;;;;;4.27;1.33;;;7.70;99.90;;;;;;5034992;28;20231;-79
2021/01/17 16:09:59;;;;;;;6.83;1.20;;;7.70;99.90;;;;;;5034749;28;20667;-79
2021/01/17 16:12:26;;;;;;;8.23;1.43;;;7.70;99.90;;;;;;5034976;28;20744;-79
2021/01/17 16:14:53;;;;;;;5.43;1.03;;;7.70;99.90;;;;;;5034724;28;20231;-79
2021/01/17 16:17:19;;;;;;;3.20;1.73;;;7.70;99.90;;;;;;5034380;28;20216;-79
2021/01/17 16:19:45;;;;;;;4.60;1.63;;;7.70;99.90;;;;;;5034245;28;20540;-79
2021/01/17 16:22:12;;;;;;;7.60;3.17;;;7.80;99.90;;;;;;5035724;28;20700;-79
2021/01/17 16:24:38;;;;;;;5.53;2.70;;;7.70;99.90;;;;;;5034209;28;20655;-79
2021/01/17 16:27:05;;;;;;;3.17;1.80;;;7.70;99.90;;;;;;5034403;28;20209;-79
2021/01/17 16:29:31;;;;;;;7.57;2.27;;;7.80;99.90;;;;;;5034444;28;20208;-79
2021/01/17 16:31:59;;;;;;;4.03;1.40;;;7.90;99.90;;;;;;5034303;28;20209;-79
2021/01/17 16:34:25;;;;;;;5.20;1.50;;;7.90;99.90;;;;;;5034034;28;20251;-79
2021/01/17 16:36:54;;;;;;;8.47;2.10;;;7.90;99.90;;;;;;5034481;28;20291;-79
2021/01/17 16:39:20;;;;;;;4.70;1.63;;;7.80;99.90;;;;;;5034114;28;20209;-79
2021/01/17 16:41:46;;;;;;;5.90;1.73;;;7.70;99.90;;;;;;5033762;28;20235;-79
2021/01/17 16:44:12;;;;;;;5.73;1.67;;;7.70;99.90;;;;;;5034055;28;20229;-79
2021/01/17 16:46:39;;;;;;;4.00;1.33;;;7.70;99.90;;;;;;5034053;28;20595;-79
2021/01/17 16:49:06;;;;;;;4.20;1.63;;;7.50;99.90;;;;;;5033965;28;20216;-79
2021/01/17 16:51:33;;;;;;;2.90;1.40;;;7.50;99.90;;;;;;5033973;28;20205;-79
2021/01/17 16:54:00;;;;;;;11.77;2.00;;;7.50;99.90;;;;;;5033827;28;20224;-79
2021/01/17 16:56:26;;;;;;;5.07;1.87;;;7.60;99.90;;;;;;5033923;28;20229;-79
2021/01/17 16:58:52;;;;;;;5.67;2.07;;;7.50;99.90;;;;;;5034008;28;20263;-79
2021/01/17 17:01:18;;;;;;;5.70;2.00;;;7.50;99.90;;;;;;5033736;28;20208;-79
2021/01/17 17:03:45;;;;;;;9.27;1.70;;;7.50;99.90;;;;;;5033424;28;20231;-79
2021/01/17 17:06:12;;;;;;;9.03;1.87;;;7.40;99.90;;;;;;5033682;28;20205;-79
2021/01/17 17:08:38;;;;;;;6.70;1.80;;;7.50;99.90;;;;;;5033744;28;20279;-79
2021/01/17 17:11:04;;;;;;;4.63;1.80;;;7.50;99.90;;;;;;5033665;28;20201;-79
2021/01/17 17:13:31;;;;;;;6.73;2.13;;;7.50;99.90;;;;;;5033499;28;20261;-79
2021/01/17 17:15:57;;;;;;;6.03;2.20;;;7.50;99.90;;;;;;5033147;28;20282;-79
2021/01/17 17:18:23;;;;;;;6.83;2.17;;;7.50;99.90;;;;;;5033572;28;20263;-79
2021/01/17 17:20:49;;;;;;;8.37;2.30;;;7.50;99.90;;;;;;5033413;28;20209;-79
2021/01/17 17:23:16;;;;;;;7.23;3.17;;;7.50;99.90;;;;;;5033182;28;20695;-79
2021/01/17 17:25:42;;;;;;;7.60;2.40;;;7.50;99.90;;;;;;5033201;28;20660;-79
2021/01/17 17:28:09;;;;;;;7.13;2.20;;;7.50;99.90;;;;;;5033366;28;20201;-79
2021/01/17 17:30:35;;;;;;;6.73;2.70;;;7.50;99.90;;;;;;5033003;28;20208;-79
2021/01/17 17:33:01;;;;;;;3.87;2.27;;;7.50;99.90;;;;;;5033047;28;20225;-79
2021/01/17 17:35:27;;;;;;;3.83;2.10;;;7.40;99.90;;;;;;5033325;28;20229;-79
2021/01/17 17:37:54;;;;;;;6.87;2.07;;;7.40;99.90;;;;;;5033011;28;20216;-78
2021/01/17 17:40:24;;;;;;;5.97;1.67;;;7.40;99.90;;;;;;5033150;28;20631;-79
2021/01/17 17:42:50;;;;;;;4.00;1.70;;;7.40;99.90;;;;;;5032925;28;20316;-79
2021/01/17 17:45:17;;;;;;;4.93;1.77;;;7.40;99.90;;;;;;5033069;28;20213;-80
2021/01/17 17:47:43;;;;;;;4.37;1.70;;;7.30;99.90;;;;;;5032717;28;20679;-79
2021/01/17 17:50:10;;;;;;;5.23;1.80;;;7.30;99.90;;;;;;5033096;28;20197;-80
2021/01/17 17:52:37;;;;;;;5.93;2.00;;;7.40;99.90;;;;;;5033154;28;20229;-80
2021/01/17 17:55:04;;;;;;;2.70;1.87;;;7.50;99.90;;;;;;5032243;28;20236;-79
2021/01/17 17:57:31;;;;;;;5.93;2.00;;;7.50;99.90;;;;;;5032833;28;20208;-80
2021/01/17 17:59:59;;;;;;;6.33;2.20;;;7.50;99.90;;;;;;5032921;28;20205;-80
2021/01/17 18:02:25;;;;;;;10.97;2.13;;;7.30;99.90;;;;;;5032941;28;20373;-80
2021/01/17 18:04:51;;;;;;;3.43;1.77;;;7.20;99.90;;;;;;5032980;28;20737;-79
2021/01/17 18:07:18;;;;;;;5.20;2.30;;;7.20;99.90;;;;;;5033130;28;20221;-80
2021/01/17 18:09:44;;;;;;;6.43;1.97;;;7.20;99.90;;;;;;5032862;28;20208;-79
2021/01/17 18:12:10;;;;;;;3.73;1.73;;;7.20;99.90;;;;;;5033124;28;20216;-79
2021/01/17 18:14:37;;;;;;;4.20;1.80;;;7.30;99.90;;;;;;5033112;28;20209;-80
2021/01/17 18:17:03;;;;;;;7.60;1.97;;;7.30;99.90;;;;;;5032720;28;20694;-80
2021/01/17 18:19:30;;;;;;;4.07;1.90;;;7.30;99.90;;;;;;5033044;28;20216;-80
2021/01/17 18:21:56;;;;;;;3.33;1.93;;;7.40;99.90;;;;;;5032838;28;20204;-80
2021/01/17 18:24:22;;;;;;;5.23;1.80;;;7.50;99.90;;;;;;5032805;28;20204;-80
2021/01/17 18:26:49;;;;;;;4.40;1.87;;;7.50;99.90;;;;;;5032961;28;20471;-81
2021/01/17 18:29:15;;;;;;;5.67;2.00;;;7.50;99.90;;;;;;5032639;28;20679;-82
2021/01/17 18:31:43;;;;;;;4.53;1.40;;;7.50;99.90;;;;;;5032777;28;20205;-82
2021/01/17 18:34:10;;;;;;;7.80;2.23;;;7.50;99.90;;;;;;5032498;28;20729;-80
2021/01/17 18:36:36;;;;;;;4.33;2.00;;;7.50;99.90;;;;;;5032594;28;20240;-82
2021/01/17 18:39:03;;;;;;;4.03;2.10;;;7.50;99.90;;;;;;5032553;28;20572;-80
2021/01/17 18:41:34;;;;;;;5.37;1.90;;;7.50;99.90;;;;;;5032211;28;20655;-80
2021/01/17 18:44:01;;;;;;;6.27;1.97;;;7.40;99.90;;;;;;5032460;28;20270;-81
2021/01/17 18:46:27;;;;;;;6.03;2.47;;;7.40;99.90;;;;;;5035838;28;20213;-81
2021/01/17 18:48:54;;;;;;;3.30;1.90;;;7.40;99.90;;;;;;5032503;28;20250;-80
2021/01/17 18:51:20;;;;;;;6.70;2.33;;;7.40;99.90;;;;;;5033498;28;20251;-83
2021/01/17 18:53:47;;;;;;;5.80;1.80;;;7.40;99.90;;;;;;5032376;28;20225;-81
2021/01/17 18:56:14;;;;;;;5.07;2.20;;;7.30;99.90;;;;;;5032079;28;20236;-82
2021/01/17 18:58:40;;;;;;;4.87;1.63;;;7.30;99.90;;;;;;5032420;28;20660;-82
2021/01/17 19:01:07;;;;;;;4.20;1.73;;;7.30;99.90;;;;;;5032332;28;20208;-81
2021/01/17 19:03:33;;;;;;;7.30;2.50;;;7.30;99.90;;;;;;5032252;28;20225;-80
2021/01/17 19:06:01;;;;;;;4.07;2.13;;;7.30;99.90;;;;;;5033884;28;20201;-80
2021/01/17 19:08:27;;;;;;;4.13;1.97;;;7.30;99.90;;;;;;5035759;28;20204;-81
2021/01/17 19:10:54;;;;;;;10.33;2.50;;;7.10;99.90;;;;;;5035962;28;20209;-82
2021/01/17 19:13:20;;;;;;;4.50;2.27;;;7.00;99.90;;;;;;5035595;28;20221;-82
2021/01/17 19:15:46;;;;;;;5.13;2.00;;;7.10;99.90;;;;;;5032882;28;20772;-81
2021/01/17 19:18:12;;;;;;;6.17;2.07;;;7.20;99.90;;;;;;5035141;28;20239;-81
2021/01/17 19:20:39;;;;;;;4.73;2.10;;;7.20;99.90;;;;;;5034744;28;20216;-80
2021/01/17 19:23:06;;;;;;;8.03;2.90;;;7.30;99.90;;;;;;5035429;28;20229;-79
2021/01/17 19:25:32;;;;;;;4.90;2.00;;;7.20;99.90;;;;;;5034536;28;20741;-78
2021/01/17 19:27:58;;;;;;;5.10;2.10;;;7.20;99.90;;;;;;5035098;28;20564;-79
2021/01/17 19:30:25;;;;;;;5.50;2.03;;;7.20;99.90;;;;;;5035093;28;20579;-80
2021/01/17 19:32:51;;;;;;;6.53;2.20;;;7.20;99.90;;;;;;5025227;28;20224;-86
2021/01/17 19:35:18;;;;;;;7.93;2.10;;;7.10;99.90;;;;;;5031756;28;20275;-84
2021/01/17 19:37:45;;;;;;;4.77;1.90;;;7.20;99.90;;;;;;5026775;28;20197;-80
2021/01/17 19:40:14;;;;;;;7.57;1.97;;;7.10;99.90;;;;;;5030546;28;20201;-75
2021/01/17 19:42:40;;;;;;;4.60;2.00;;;7.10;99.90;;;;;;5031717;28;20251;-75
2021/01/17 19:45:08;;;;;;;5.80;1.87;;;7.10;99.90;;;;;;5031554;28;20212;-74
2021/01/17 19:47:34;;;;;;;5.87;2.03;;;7.10;99.90;;;;;;5030539;28;20209;-74
2021/01/17 19:50:01;;;;;;;6.23;2.10;;;7.10;99.90;;;;;;5032388;28;20235;-73
